sensor_id;sensor_type;location;lat;lon;timestamp;P1;durP1;ratioP1;P2;durP2;ratioP2
36415;SDS011;22447;44.530;18.620;2023-06-24T00:00:09;8.23;;;3.42;;
36415;SDS011;22447;44.530;18.620;2023-06-24T00:02:37;8.63;;;3.58;;
36415;SDS011;22447;44.530;18.620;2023-06-24T00:05:04;11.55;;;3.53;;
36415;SDS011;22447;44.530;18.620;2023-06-24T00:07:32;12.60;;;3.70;;
36415;SDS011;22447;44.530;18.620;2023-06-24T00:10:01;10.95;;;3.20;;
36415;SDS011;22447;44.530;18.620;2023-06-24T00:12:28;12.25;;;3.72;;
36415;SDS011;22447;44.530;18.620;2023-06-24T00:14:54;11.30;;;3.58;;
36415;SDS011;22447;44.530;18.620;2023-06-24T00:17:20;10.38;;;3.45;;
36415;SDS011;22447;44.530;18.620;2023-06-24T00:19:46;9.43;;;3.63;;
36415;SDS011;22447;44.530;18.620;2023-06-24T00:22:12;6.13;;;3.25;;
36415;SDS011;22447;44.530;18.620;2023-06-24T00:24:38;11.25;;;4.25;;
36415;SDS011;22447;44.530;18.620;2023-06-24T00:27:05;17.27;;;3.70;;
36415;SDS011;22447;44.530;18.620;2023-06-24T00:29:31;16.42;;;3.50;;
36415;SDS011;22447;44.530;18.620;2023-06-24T00:31:57;8.75;;;3.53;;
36415;SDS011;22447;44.530;18.620;2023-06-24T00:34:23;10.13;;;3.60;;
36415;SDS011;22447;44.530;18.620;2023-06-24T00:36:50;14.07;;;4.32;;
36415;SDS011;22447;44.530;18.620;2023-06-24T00:39:18;11.00;;;3.38;;
36415;SDS011;22447;44.530;18.620;2023-06-24T00:41:44;6.90;;;4.05;;
36415;SDS011;22447;44.530;18.620;2023-06-24T00:44:10;10.07;;;4.15;;
36415;SDS011;22447;44.530;18.620;2023-06-24T00:46:36;11.73;;;4.03;;
36415;SDS011;22447;44.530;18.620;2023-06-24T00:49:05;8.65;;;3.88;;
36415;SDS011;22447;44.530;18.620;2023-06-24T00:51:32;13.15;;;4.35;;
36415;SDS011;22447;44.530;18.620;2023-06-24T00:54:01;11.27;;;3.70;;
36415;SDS011;22447;44.530;18.620;2023-06-24T00:56:33;11.95;;;3.85;;
36415;SDS011;22447;44.530;18.620;2023-06-24T00:59:03;11.93;;;3.83;;
36415;SDS011;22447;44.530;18.620;2023-06-24T01:01:33;13.75;;;4.20;;
36415;SDS011;22447;44.530;18.620;2023-06-24T01:04:01;12.75;;;4.20;;
36415;SDS011;22447;44.530;18.620;2023-06-24T01:06:28;10.00;;;4.85;;
36415;SDS011;22447;44.530;18.620;2023-06-24T01:08:55;13.45;;;5.00;;
36415;SDS011;22447;44.530;18.620;2023-06-24T01:11:26;12.40;;;4.55;;
36415;SDS011;22447;44.530;18.620;2023-06-24T01:13:53;15.13;;;4.85;;
36415;SDS011;22447;44.530;18.620;2023-06-24T01:22:04;14.32;;;4.25;;
36415;SDS011;22447;44.530;18.620;2023-06-24T01:27:31;13.50;;;4.55;;
36415;SDS011;22447;44.530;18.620;2023-06-24T01:32:50;8.13;;;4.75;;
36415;SDS011;22447;44.530;18.620;2023-06-24T01:35:21;7.57;;;4.40;;
36415;SDS011;22447;44.530;18.620;2023-06-24T01:37:51;11.23;;;4.45;;
36415;SDS011;22447;44.530;18.620;2023-06-24T01:42:48;10.55;;;4.60;;
36415;SDS011;22447;44.530;18.620;2023-06-24T01:45:23;12.85;;;4.57;;
36415;SDS011;22447;44.530;18.620;2023-06-24T01:48:02;11.55;;;4.45;;
36415;SDS011;22447;44.530;18.620;2023-06-24T01:50:33;11.48;;;4.72;;
36415;SDS011;22447;44.530;18.620;2023-06-24T01:53:03;10.70;;;4.30;;
36415;SDS011;22447;44.530;18.620;2023-06-24T01:55:32;14.60;;;4.40;;
36415;SDS011;22447;44.530;18.620;2023-06-24T01:57:59;11.05;;;4.15;;
36415;SDS011;22447;44.530;18.620;2023-06-24T02:00:28;12.48;;;3.92;;
36415;SDS011;22447;44.530;18.620;2023-06-24T02:02:54;11.20;;;4.30;;
36415;SDS011;22447;44.530;18.620;2023-06-24T02:05:21;11.35;;;4.78;;
36415;SDS011;22447;44.530;18.620;2023-06-24T02:07:48;12.23;;;4.18;;
36415;SDS011;22447;44.530;18.620;2023-06-24T02:10:16;13.93;;;4.38;;
36415;SDS011;22447;44.530;18.620;2023-06-24T02:12:44;10.63;;;4.15;;
36415;SDS011;22447;44.530;18.620;2023-06-24T02:15:13;9.15;;;4.10;;
36415;SDS011;22447;44.530;18.620;2023-06-24T02:17:40;12.52;;;4.20;;
36415;SDS011;22447;44.530;18.620;2023-06-24T02:20:07;9.70;;;4.13;;
36415;SDS011;22447;44.530;18.620;2023-06-24T02:22:38;8.95;;;4.22;;
36415;SDS011;22447;44.530;18.620;2023-06-24T02:25:05;8.40;;;4.13;;
36415;SDS011;22447;44.530;18.620;2023-06-24T02:27:33;8.85;;;4.20;;
36415;SDS011;22447;44.530;18.620;2023-06-24T02:30:00;9.77;;;4.22;;
36415;SDS011;22447;44.530;18.620;2023-06-24T02:32:29;8.63;;;4.60;;
36415;SDS011;22447;44.530;18.620;2023-06-24T02:34:56;11.35;;;4.70;;
36415;SDS011;22447;44.530;18.620;2023-06-24T02:37:23;13.65;;;4.45;;
36415;SDS011;22447;44.530;18.620;2023-06-24T02:39:49;15.27;;;4.70;;
36415;SDS011;22447;44.530;18.620;2023-06-24T02:42:15;17.60;;;4.95;;
36415;SDS011;22447;44.530;18.620;2023-06-24T02:44:42;10.95;;;5.00;;
36415;SDS011;22447;44.530;18.620;2023-06-24T02:47:09;11.93;;;5.45;;
36415;SDS011;22447;44.530;18.620;2023-06-24T02:49:38;19.15;;;5.97;;
36415;SDS011;22447;44.530;18.620;2023-06-24T02:52:05;13.45;;;5.63;;
36415;SDS011;22447;44.530;18.620;2023-06-24T02:54:33;10.25;;;5.20;;
36415;SDS011;22447;44.530;18.620;2023-06-24T02:57:18;22.98;;;6.00;;
36415;SDS011;22447;44.530;18.620;2023-06-24T03:00:17;12.73;;;5.30;;
36415;SDS011;22447;44.530;18.620;2023-06-24T03:03:04;10.15;;;4.47;;
36415;SDS011;22447;44.530;18.620;2023-06-24T03:05:34;13.20;;;5.00;;
36415;SDS011;22447;44.530;18.620;2023-06-24T03:08:01;14.77;;;5.47;;
36415;SDS011;22447;44.530;18.620;2023-06-24T03:10:32;12.73;;;5.40;;
36415;SDS011;22447;44.530;18.620;2023-06-24T03:12:58;17.13;;;6.15;;
36415;SDS011;22447;44.530;18.620;2023-06-24T03:15:33;12.10;;;6.00;;
36415;SDS011;22447;44.530;18.620;2023-06-24T03:18:01;10.45;;;6.20;;
36415;SDS011;22447;44.530;18.620;2023-06-24T03:20:27;16.50;;;6.03;;
36415;SDS011;22447;44.530;18.620;2023-06-24T03:22:55;16.02;;;6.90;;
36415;SDS011;22447;44.530;18.620;2023-06-24T03:25:22;13.57;;;6.38;;
36415;SDS011;22447;44.530;18.620;2023-06-24T03:27:48;16.65;;;6.68;;
36415;SDS011;22447;44.530;18.620;2023-06-24T03:30:15;11.23;;;5.80;;
36415;SDS011;22447;44.530;18.620;2023-06-24T03:32:42;13.00;;;5.47;;
36415;SDS011;22447;44.530;18.620;2023-06-24T03:35:13;18.90;;;6.07;;
36415;SDS011;22447;44.530;18.620;2023-06-24T03:37:39;12.60;;;6.43;;
36415;SDS011;22447;44.530;18.620;2023-06-24T03:40:06;12.73;;;6.07;;
36415;SDS011;22447;44.530;18.620;2023-06-24T03:42:34;10.52;;;5.13;;
36415;SDS011;22447;44.530;18.620;2023-06-24T03:45:02;10.63;;;5.47;;
36415;SDS011;22447;44.530;18.620;2023-06-24T03:47:29;11.45;;;5.72;;
36415;SDS011;22447;44.530;18.620;2023-06-24T03:49:55;12.15;;;5.93;;
36415;SDS011;22447;44.530;18.620;2023-06-24T03:52:21;15.63;;;5.55;;
36415;SDS011;22447;44.530;18.620;2023-06-24T03:54:48;13.60;;;5.15;;
36415;SDS011;22447;44.530;18.620;2023-06-24T03:57:14;10.13;;;5.70;;
36415;SDS011;22447;44.530;18.620;2023-06-24T03:59:40;10.27;;;5.68;;
36415;SDS011;22447;44.530;18.620;2023-06-24T04:02:06;11.35;;;5.35;;
36415;SDS011;22447;44.530;18.620;2023-06-24T04:04:35;14.82;;;5.65;;
36415;SDS011;22447;44.530;18.620;2023-06-24T04:07:03;7.13;;;5.35;;
36415;SDS011;22447;44.530;18.620;2023-06-24T04:09:33;11.18;;;5.38;;
36415;SDS011;22447;44.530;18.620;2023-06-24T04:12:00;10.60;;;5.95;;
36415;SDS011;22447;44.530;18.620;2023-06-24T04:14:32;12.15;;;5.07;;
36415;SDS011;22447;44.530;18.620;2023-06-24T04:16:58;13.98;;;6.95;;
36415;SDS011;22447;44.530;18.620;2023-06-24T04:19:24;11.75;;;6.10;;
36415;SDS011;22447;44.530;18.620;2023-06-24T04:21:50;11.40;;;6.43;;
36415;SDS011;22447;44.530;18.620;2023-06-24T04:24:17;8.80;;;5.25;;
36415;SDS011;22447;44.530;18.620;2023-06-24T04:26:42;9.00;;;5.90;;
36415;SDS011;22447;44.530;18.620;2023-06-24T04:29:08;10.88;;;5.30;;
36415;SDS011;22447;44.530;18.620;2023-06-24T04:31:34;12.25;;;6.10;;
36415;SDS011;22447;44.530;18.620;2023-06-24T04:34:00;13.30;;;6.63;;
36415;SDS011;22447;44.530;18.620;2023-06-24T04:36:26;10.52;;;5.72;;
36415;SDS011;22447;44.530;18.620;2023-06-24T04:38:52;13.32;;;6.93;;
36415;SDS011;22447;44.530;18.620;2023-06-24T04:41:18;8.80;;;5.43;;
36415;SDS011;22447;44.530;18.620;2023-06-24T04:43:44;10.73;;;5.80;;
36415;SDS011;22447;44.530;18.620;2023-06-24T04:46:10;12.60;;;6.90;;
36415;SDS011;22447;44.530;18.620;2023-06-24T04:48:36;12.88;;;6.03;;
36415;SDS011;22447;44.530;18.620;2023-06-24T04:51:02;12.40;;;6.00;;
36415;SDS011;22447;44.530;18.620;2023-06-24T04:53:28;9.02;;;5.80;;
36415;SDS011;22447;44.530;18.620;2023-06-24T04:55:54;7.30;;;5.32;;
36415;SDS011;22447;44.530;18.620;2023-06-24T04:58:20;8.60;;;5.28;;
36415;SDS011;22447;44.530;18.620;2023-06-24T05:00:46;9.90;;;5.68;;
36415;SDS011;22447;44.530;18.620;2023-06-24T05:03:12;14.55;;;5.93;;
36415;SDS011;22447;44.530;18.620;2023-06-24T05:05:38;10.93;;;5.70;;
36415;SDS011;22447;44.530;18.620;2023-06-24T05:08:04;11.05;;;5.93;;
36415;SDS011;22447;44.530;18.620;2023-06-24T05:10:30;8.68;;;5.57;;
36415;SDS011;22447;44.530;18.620;2023-06-24T05:12:56;8.23;;;5.55;;
36415;SDS011;22447;44.530;18.620;2023-06-24T05:15:22;9.07;;;5.22;;
36415;SDS011;22447;44.530;18.620;2023-06-24T05:17:48;10.02;;;5.70;;
36415;SDS011;22447;44.530;18.620;2023-06-24T05:20:14;15.38;;;5.78;;
36415;SDS011;22447;44.530;18.620;2023-06-24T05:22:40;20.55;;;5.90;;
36415;SDS011;22447;44.530;18.620;2023-06-24T05:25:06;16.65;;;5.90;;
36415;SDS011;22447;44.530;18.620;2023-06-24T05:27:32;12.48;;;6.32;;
36415;SDS011;22447;44.530;18.620;2023-06-24T05:29:58;11.30;;;5.65;;
36415;SDS011;22447;44.530;18.620;2023-06-24T05:32:24;9.35;;;5.63;;
36415;SDS011;22447;44.530;18.620;2023-06-24T05:34:50;9.68;;;5.47;;
36415;SDS011;22447;44.530;18.620;2023-06-24T05:37:16;14.15;;;5.93;;
36415;SDS011;22447;44.530;18.620;2023-06-24T05:39:42;13.77;;;5.97;;
36415;SDS011;22447;44.530;18.620;2023-06-24T05:42:08;15.00;;;5.45;;
36415;SDS011;22447;44.530;18.620;2023-06-24T05:44:34;15.38;;;5.25;;
36415;SDS011;22447;44.530;18.620;2023-06-24T05:47:00;15.60;;;5.35;;
36415;SDS011;22447;44.530;18.620;2023-06-24T05:49:26;9.68;;;4.57;;
36415;SDS011;22447;44.530;18.620;2023-06-24T05:51:52;24.73;;;5.45;;
36415;SDS011;22447;44.530;18.620;2023-06-24T05:54:18;15.88;;;5.63;;
36415;SDS011;22447;44.530;18.620;2023-06-24T05:56:43;13.02;;;5.70;;
36415;SDS011;22447;44.530;18.620;2023-06-24T05:59:09;11.45;;;5.25;;
36415;SDS011;22447;44.530;18.620;2023-06-24T06:01:35;9.30;;;5.07;;
36415;SDS011;22447;44.530;18.620;2023-06-24T06:04:01;10.88;;;4.50;;
36415;SDS011;22447;44.530;18.620;2023-06-24T06:06:27;11.13;;;5.60;;
36415;SDS011;22447;44.530;18.620;2023-06-24T06:08:53;11.18;;;5.18;;
36415;SDS011;22447;44.530;18.620;2023-06-24T06:11:19;11.25;;;5.10;;
36415;SDS011;22447;44.530;18.620;2023-06-24T06:13:45;9.32;;;4.25;;
36415;SDS011;22447;44.530;18.620;2023-06-24T06:16:11;10.73;;;4.95;;
36415;SDS011;22447;44.530;18.620;2023-06-24T06:18:37;12.50;;;4.75;;
36415;SDS011;22447;44.530;18.620;2023-06-24T06:21:03;9.93;;;4.82;;
36415;SDS011;22447;44.530;18.620;2023-06-24T06:23:29;10.30;;;4.80;;
36415;SDS011;22447;44.530;18.620;2023-06-24T06:25:55;10.10;;;4.80;;
36415;SDS011;22447;44.530;18.620;2023-06-24T06:28:21;7.35;;;4.85;;
36415;SDS011;22447;44.530;18.620;2023-06-24T06:30:47;6.97;;;4.18;;
36415;SDS011;22447;44.530;18.620;2023-06-24T06:33:13;7.75;;;4.75;;
36415;SDS011;22447;44.530;18.620;2023-06-24T06:35:39;4.95;;;3.97;;
36415;SDS011;22447;44.530;18.620;2023-06-24T06:38:05;12.18;;;5.53;;
36415;SDS011;22447;44.530;18.620;2023-06-24T06:40:31;11.07;;;4.80;;
36415;SDS011;22447;44.530;18.620;2023-06-24T06:42:57;10.23;;;4.80;;
36415;SDS011;22447;44.530;18.620;2023-06-24T06:45:22;9.32;;;4.78;;
36415;SDS011;22447;44.530;18.620;2023-06-24T06:47:49;10.18;;;4.80;;
36415;SDS011;22447;44.530;18.620;2023-06-24T06:50:15;9.75;;;5.13;;
36415;SDS011;22447;44.530;18.620;2023-06-24T06:52:41;9.00;;;5.30;;
36415;SDS011;22447;44.530;18.620;2023-06-24T06:55:07;9.70;;;5.55;;
36415;SDS011;22447;44.530;18.620;2023-06-24T06:57:34;7.13;;;5.00;;
36415;SDS011;22447;44.530;18.620;2023-06-24T07:00:00;12.82;;;5.55;;
36415;SDS011;22447;44.530;18.620;2023-06-24T07:02:26;10.55;;;5.40;;
36415;SDS011;22447;44.530;18.620;2023-06-24T07:04:52;9.65;;;6.07;;
36415;SDS011;22447;44.530;18.620;2023-06-24T07:07:18;17.10;;;6.40;;
36415;SDS011;22447;44.530;18.620;2023-06-24T07:09:44;8.40;;;5.32;;
36415;SDS011;22447;44.530;18.620;2023-06-24T07:12:11;11.13;;;5.60;;
36415;SDS011;22447;44.530;18.620;2023-06-24T07:14:38;16.00;;;7.30;;
36415;SDS011;22447;44.530;18.620;2023-06-24T07:17:04;15.75;;;7.03;;
36415;SDS011;22447;44.530;18.620;2023-06-24T07:19:32;17.98;;;7.68;;
36415;SDS011;22447;44.530;18.620;2023-06-24T07:21:58;12.88;;;6.63;;
36415;SDS011;22447;44.530;18.620;2023-06-24T07:24:24;16.20;;;7.65;;
36415;SDS011;22447;44.530;18.620;2023-06-24T07:26:50;18.15;;;7.25;;
36415;SDS011;22447;44.530;18.620;2023-06-24T07:29:16;16.42;;;7.70;;
36415;SDS011;22447;44.530;18.620;2023-06-24T07:31:42;9.27;;;5.85;;
36415;SDS011;22447;44.530;18.620;2023-06-24T07:34:08;11.40;;;6.80;;
36415;SDS011;22447;44.530;18.620;2023-06-24T07:36:34;14.02;;;6.30;;
36415;SDS011;22447;44.530;18.620;2023-06-24T07:39:00;12.43;;;6.00;;
36415;SDS011;22447;44.530;18.620;2023-06-24T07:41:26;12.23;;;6.22;;
36415;SDS011;22447;44.530;18.620;2023-06-24T07:43:52;10.60;;;6.38;;
36415;SDS011;22447;44.530;18.620;2023-06-24T07:46:18;13.77;;;7.35;;
36415;SDS011;22447;44.530;18.620;2023-06-24T07:48:45;11.65;;;7.30;;
36415;SDS011;22447;44.530;18.620;2023-06-24T07:51:11;20.02;;;7.68;;
36415;SDS011;22447;44.530;18.620;2023-06-24T07:53:37;12.43;;;7.63;;
36415;SDS011;22447;44.530;18.620;2023-06-24T07:56:03;10.55;;;5.85;;
36415;SDS011;22447;44.530;18.620;2023-06-24T07:58:29;13.55;;;7.75;;
36415;SDS011;22447;44.530;18.620;2023-06-24T08:00:55;12.05;;;7.57;;
36415;SDS011;22447;44.530;18.620;2023-06-24T08:03:21;14.10;;;7.00;;
36415;SDS011;22447;44.530;18.620;2023-06-24T08:05:48;11.50;;;7.50;;
36415;SDS011;22447;44.530;18.620;2023-06-24T08:08:15;13.43;;;7.93;;
36415;SDS011;22447;44.530;18.620;2023-06-24T08:10:41;12.23;;;7.03;;
36415;SDS011;22447;44.530;18.620;2023-06-24T08:13:07;13.65;;;7.70;;
36415;SDS011;22447;44.530;18.620;2023-06-24T08:15:33;10.00;;;7.28;;
36415;SDS011;22447;44.530;18.620;2023-06-24T08:17:59;12.70;;;7.80;;
36415;SDS011;22447;44.530;18.620;2023-06-24T08:20:25;11.05;;;8.15;;
36415;SDS011;22447;44.530;18.620;2023-06-24T08:22:51;14.73;;;9.32;;
36415;SDS011;22447;44.530;18.620;2023-06-24T08:25:17;16.67;;;10.15;;
36415;SDS011;22447;44.530;18.620;2023-06-24T08:27:43;10.93;;;7.80;;
36415;SDS011;22447;44.530;18.620;2023-06-24T08:30:12;11.63;;;8.60;;
36415;SDS011;22447;44.530;18.620;2023-06-24T08:32:40;13.00;;;8.98;;
36415;SDS011;22447;44.530;18.620;2023-06-24T08:35:07;10.75;;;7.68;;
36415;SDS011;22447;44.530;18.620;2023-06-24T08:37:36;11.93;;;7.65;;
36415;SDS011;22447;44.530;18.620;2023-06-24T08:40:03;13.50;;;7.72;;
36415;SDS011;22447;44.530;18.620;2023-06-24T08:42:30;15.50;;;8.43;;
36415;SDS011;22447;44.530;18.620;2023-06-24T08:44:56;12.15;;;8.38;;
36415;SDS011;22447;44.530;18.620;2023-06-24T08:47:23;12.68;;;7.18;;
36415;SDS011;22447;44.530;18.620;2023-06-24T08:49:53;10.20;;;6.57;;
36415;SDS011;22447;44.530;18.620;2023-06-24T08:52:27;9.63;;;7.20;;
36415;SDS011;22447;44.530;18.620;2023-06-24T08:54:57;11.27;;;7.13;;
36415;SDS011;22447;44.530;18.620;2023-06-24T08:57:25;9.23;;;7.28;;
36415;SDS011;22447;44.530;18.620;2023-06-24T08:59:51;8.05;;;6.13;;
36415;SDS011;22447;44.530;18.620;2023-06-24T09:02:18;9.85;;;6.72;;
36415;SDS011;22447;44.530;18.620;2023-06-24T09:04:45;10.82;;;6.47;;
36415;SDS011;22447;44.530;18.620;2023-06-24T09:07:11;12.60;;;7.50;;
36415;SDS011;22447;44.530;18.620;2023-06-24T09:09:43;9.05;;;6.70;;
36415;SDS011;22447;44.530;18.620;2023-06-24T09:12:13;9.63;;;6.10;;
36415;SDS011;22447;44.530;18.620;2023-06-24T09:14:40;10.75;;;7.13;;
36415;SDS011;22447;44.530;18.620;2023-06-24T09:17:06;10.63;;;6.70;;
36415;SDS011;22447;44.530;18.620;2023-06-24T09:19:34;10.40;;;6.60;;
36415;SDS011;22447;44.530;18.620;2023-06-24T09:22:08;11.52;;;6.82;;
36415;SDS011;22447;44.530;18.620;2023-06-24T09:24:41;11.50;;;6.40;;
36415;SDS011;22447;44.530;18.620;2023-06-24T09:27:08;11.35;;;6.45;;
36415;SDS011;22447;44.530;18.620;2023-06-24T09:29:36;9.93;;;7.18;;
36415;SDS011;22447;44.530;18.620;2023-06-24T09:32:05;9.52;;;6.45;;
36415;SDS011;22447;44.530;18.620;2023-06-24T09:34:32;10.48;;;6.40;;
36415;SDS011;22447;44.530;18.620;2023-06-24T09:36:59;9.90;;;5.97;;
36415;SDS011;22447;44.530;18.620;2023-06-24T09:39:26;9.50;;;5.78;;
36415;SDS011;22447;44.530;18.620;2023-06-24T09:44:22;8.93;;;5.72;;
36415;SDS011;22447;44.530;18.620;2023-06-24T09:46:49;7.45;;;5.47;;
36415;SDS011;22447;44.530;18.620;2023-06-24T09:49:15;7.63;;;5.40;;
36415;SDS011;22447;44.530;18.620;2023-06-24T09:51:44;12.85;;;7.18;;
36415;SDS011;22447;44.530;18.620;2023-06-24T09:54:12;10.75;;;6.25;;
36415;SDS011;22447;44.530;18.620;2023-06-24T09:56:43;8.55;;;5.50;;
36415;SDS011;22447;44.530;18.620;2023-06-24T09:59:19;8.60;;;5.80;;
36415;SDS011;22447;44.530;18.620;2023-06-24T10:01:47;9.60;;;5.90;;
36415;SDS011;22447;44.530;18.620;2023-06-24T10:04:17;10.93;;;5.93;;
36415;SDS011;22447;44.530;18.620;2023-06-24T10:06:44;11.18;;;6.90;;
36415;SDS011;22447;44.530;18.620;2023-06-24T10:09:10;9.23;;;6.10;;
36415;SDS011;22447;44.530;18.620;2023-06-24T10:11:39;11.63;;;6.78;;
36415;SDS011;22447;44.530;18.620;2023-06-24T10:14:05;11.82;;;6.68;;
36415;SDS011;22447;44.530;18.620;2023-06-24T10:16:31;11.45;;;5.57;;
36415;SDS011;22447;44.530;18.620;2023-06-24T10:19:01;11.23;;;6.05;;
36415;SDS011;22447;44.530;18.620;2023-06-24T10:27:16;8.63;;;5.88;;
36415;SDS011;22447;44.530;18.620;2023-06-24T10:29:46;8.80;;;5.90;;
36415;SDS011;22447;44.530;18.620;2023-06-24T10:32:13;9.40;;;5.90;;
36415;SDS011;22447;44.530;18.620;2023-06-24T10:34:41;7.75;;;5.13;;
36415;SDS011;22447;44.530;18.620;2023-06-24T10:37:12;8.38;;;5.20;;
36415;SDS011;22447;44.530;18.620;2023-06-24T10:39:52;14.40;;;5.80;;
36415;SDS011;22447;44.530;18.620;2023-06-24T10:47:36;8.60;;;4.95;;
36415;SDS011;22447;44.530;18.620;2023-06-24T10:50:07;12.10;;;5.75;;
36415;SDS011;22447;44.530;18.620;2023-06-24T10:52:53;6.85;;;4.78;;
36415;SDS011;22447;44.530;18.620;2023-06-24T10:55:24;12.15;;;5.55;;
36415;SDS011;22447;44.530;18.620;2023-06-24T10:57:53;6.05;;;4.10;;
36415;SDS011;22447;44.530;18.620;2023-06-24T11:00:20;5.00;;;4.00;;
36415;SDS011;22447;44.530;18.620;2023-06-24T11:02:47;6.10;;;4.47;;
36415;SDS011;22447;44.530;18.620;2023-06-24T11:05:13;6.22;;;3.90;;
36415;SDS011;22447;44.530;18.620;2023-06-24T11:07:39;5.47;;;3.97;;
36415;SDS011;22447;44.530;18.620;2023-06-24T11:10:06;8.40;;;4.47;;
36415;SDS011;22447;44.530;18.620;2023-06-24T11:15:06;6.35;;;4.07;;
36415;SDS011;22447;44.530;18.620;2023-06-24T11:17:33;7.15;;;4.25;;
36415;SDS011;22447;44.530;18.620;2023-06-24T11:20:00;6.18;;;4.20;;
36415;SDS011;22447;44.530;18.620;2023-06-24T11:22:27;7.53;;;4.28;;
36415;SDS011;22447;44.530;18.620;2023-06-24T11:24:54;6.68;;;3.58;;
36415;SDS011;22447;44.530;18.620;2023-06-24T11:27:24;6.07;;;3.50;;
36415;SDS011;22447;44.530;18.620;2023-06-24T11:32:18;8.57;;;4.03;;
36415;SDS011;22447;44.530;18.620;2023-06-24T11:34:44;8.82;;;4.25;;
36415;SDS011;22447;44.530;18.620;2023-06-24T11:37:11;4.50;;;3.17;;
36415;SDS011;22447;44.530;18.620;2023-06-24T11:39:38;12.70;;;3.88;;
36415;SDS011;22447;44.530;18.620;2023-06-24T11:42:08;7.90;;;3.67;;
36415;SDS011;22447;44.530;18.620;2023-06-24T11:44:35;13.20;;;4.90;;
36415;SDS011;22447;44.530;18.620;2023-06-24T11:47:07;5.40;;;3.38;;
36415;SDS011;22447;44.530;18.620;2023-06-24T11:49:55;7.00;;;3.50;;
36415;SDS011;22447;44.530;18.620;2023-06-24T11:55:12;7.43;;;4.10;;
36415;SDS011;22447;44.530;18.620;2023-06-24T11:57:58;7.93;;;3.80;;
36415;SDS011;22447;44.530;18.620;2023-06-24T12:00:32;8.57;;;3.63;;
36415;SDS011;22447;44.530;18.620;2023-06-24T12:03:05;7.75;;;4.18;;
36415;SDS011;22447;44.530;18.620;2023-06-24T12:05:32;4.72;;;3.97;;
36415;SDS011;22447;44.530;18.620;2023-06-24T12:08:00;6.32;;;3.78;;
36415;SDS011;22447;44.530;18.620;2023-06-24T12:10:28;7.28;;;3.75;;
36415;SDS011;22447;44.530;18.620;2023-06-24T12:12:58;5.13;;;3.88;;
36415;SDS011;22447;44.530;18.620;2023-06-24T12:15:24;6.60;;;3.35;;
36415;SDS011;22447;44.530;18.620;2023-06-24T12:17:50;5.00;;;3.65;;
36415;SDS011;22447;44.530;18.620;2023-06-24T12:20:16;8.77;;;4.40;;
36415;SDS011;22447;44.530;18.620;2023-06-24T12:22:43;3.80;;;3.15;;
36415;SDS011;22447;44.530;18.620;2023-06-24T12:25:09;4.78;;;3.30;;
36415;SDS011;22447;44.530;18.620;2023-06-24T12:27:36;4.00;;;3.38;;
36415;SDS011;22447;44.530;18.620;2023-06-24T12:30:03;8.05;;;4.22;;
36415;SDS011;22447;44.530;18.620;2023-06-24T12:32:29;8.65;;;3.65;;
36415;SDS011;22447;44.530;18.620;2023-06-24T12:34:55;6.28;;;3.35;;
36415;SDS011;22447;44.530;18.620;2023-06-24T12:37:21;4.72;;;3.30;;
36415;SDS011;22447;44.530;18.620;2023-06-24T12:39:48;5.28;;;3.40;;
36415;SDS011;22447;44.530;18.620;2023-06-24T12:42:16;9.65;;;3.38;;
36415;SDS011;22447;44.530;18.620;2023-06-24T12:44:42;6.72;;;3.38;;
36415;SDS011;22447;44.530;18.620;2023-06-24T12:47:08;7.28;;;3.60;;
36415;SDS011;22447;44.530;18.620;2023-06-24T12:49:34;4.57;;;3.22;;
36415;SDS011;22447;44.530;18.620;2023-06-24T12:52:01;6.00;;;3.47;;
36415;SDS011;22447;44.530;18.620;2023-06-24T12:54:27;8.93;;;3.58;;
36415;SDS011;22447;44.530;18.620;2023-06-24T12:56:52;9.32;;;4.20;;
36415;SDS011;22447;44.530;18.620;2023-06-24T12:59:18;10.38;;;5.20;;
36415;SDS011;22447;44.530;18.620;2023-06-24T13:01:44;9.75;;;4.72;;
36415;SDS011;22447;44.530;18.620;2023-06-24T13:04:11;11.13;;;5.95;;
36415;SDS011;22447;44.530;18.620;2023-06-24T13:06:37;12.23;;;6.03;;
36415;SDS011;22447;44.530;18.620;2023-06-24T13:09:03;14.05;;;6.10;;
36415;SDS011;22447;44.530;18.620;2023-06-24T13:11:29;15.75;;;7.65;;
36415;SDS011;22447;44.530;18.620;2023-06-24T13:13:55;16.67;;;8.38;;
36415;SDS011;22447;44.530;18.620;2023-06-24T13:16:21;15.05;;;8.43;;
36415;SDS011;22447;44.530;18.620;2023-06-24T13:18:47;19.33;;;10.35;;
36415;SDS011;22447;44.530;18.620;2023-06-24T13:21:13;16.77;;;9.55;;
36415;SDS011;22447;44.530;18.620;2023-06-24T13:23:39;15.90;;;7.35;;
36415;SDS011;22447;44.530;18.620;2023-06-24T13:26:05;15.50;;;7.15;;
36415;SDS011;22447;44.530;18.620;2023-06-24T13:28:32;20.58;;;9.02;;
36415;SDS011;22447;44.530;18.620;2023-06-24T13:30:58;22.17;;;11.60;;
36415;SDS011;22447;44.530;18.620;2023-06-24T13:33:24;31.38;;;12.95;;
36415;SDS011;22447;44.530;18.620;2023-06-24T13:35:50;27.30;;;12.52;;
36415;SDS011;22447;44.530;18.620;2023-06-24T13:38:17;31.88;;;13.52;;
36415;SDS011;22447;44.530;18.620;2023-06-24T13:40:43;30.35;;;13.82;;
36415;SDS011;22447;44.530;18.620;2023-06-24T13:43:09;28.17;;;13.07;;
36415;SDS011;22447;44.530;18.620;2023-06-24T13:45:35;25.58;;;13.07;;
36415;SDS011;22447;44.530;18.620;2023-06-24T13:48:01;29.58;;;14.25;;
36415;SDS011;22447;44.530;18.620;2023-06-24T13:50:27;24.48;;;13.85;;
36415;SDS011;22447;44.530;18.620;2023-06-24T13:52:54;25.35;;;12.88;;
36415;SDS011;22447;44.530;18.620;2023-06-24T13:55:21;32.35;;;14.60;;
36415;SDS011;22447;44.530;18.620;2023-06-24T13:57:47;27.23;;;13.13;;
36415;SDS011;22447;44.530;18.620;2023-06-24T14:00:13;33.80;;;15.38;;
36415;SDS011;22447;44.530;18.620;2023-06-24T14:02:40;34.38;;;14.65;;
36415;SDS011;22447;44.530;18.620;2023-06-24T14:05:06;29.90;;;12.68;;
36415;SDS011;22447;44.530;18.620;2023-06-24T14:07:33;27.42;;;12.38;;
36415;SDS011;22447;44.530;18.620;2023-06-24T14:09:59;24.92;;;13.27;;
36415;SDS011;22447;44.530;18.620;2023-06-24T14:12:25;26.60;;;13.32;;
36415;SDS011;22447;44.530;18.620;2023-06-24T14:14:51;24.15;;;12.73;;
36415;SDS011;22447;44.530;18.620;2023-06-24T14:17:17;20.75;;;12.07;;
36415;SDS011;22447;44.530;18.620;2023-06-24T14:19:43;24.95;;;11.93;;
36415;SDS011;22447;44.530;18.620;2023-06-24T14:22:09;20.88;;;10.38;;
36415;SDS011;22447;44.530;18.620;2023-06-24T14:24:35;20.20;;;10.38;;
36415;SDS011;22447;44.530;18.620;2023-06-24T14:27:04;17.90;;;9.63;;
36415;SDS011;22447;44.530;18.620;2023-06-24T14:29:31;19.60;;;10.90;;
36415;SDS011;22447;44.530;18.620;2023-06-24T14:31:57;20.70;;;10.57;;
36415;SDS011;22447;44.530;18.620;2023-06-24T14:34:23;16.52;;;8.95;;
36415;SDS011;22447;44.530;18.620;2023-06-24T14:36:48;19.75;;;9.52;;
36415;SDS011;22447;44.530;18.620;2023-06-24T14:39:15;16.13;;;9.32;;
36415;SDS011;22447;44.530;18.620;2023-06-24T14:41:42;13.90;;;8.98;;
36415;SDS011;22447;44.530;18.620;2023-06-24T14:44:09;16.58;;;9.23;;
36415;SDS011;22447;44.530;18.620;2023-06-24T14:46:35;16.83;;;9.65;;
36415;SDS011;22447;44.530;18.620;2023-06-24T14:49:00;17.40;;;9.85;;
36415;SDS011;22447;44.530;18.620;2023-06-24T14:51:27;21.10;;;9.82;;
36415;SDS011;22447;44.530;18.620;2023-06-24T14:53:53;17.10;;;8.52;;
36415;SDS011;22447;44.530;18.620;2023-06-24T14:56:19;17.80;;;8.98;;
36415;SDS011;22447;44.530;18.620;2023-06-24T14:58:45;12.82;;;7.97;;
36415;SDS011;22447;44.530;18.620;2023-06-24T15:01:11;17.15;;;8.35;;